sensor_id;sensor_type;location;lat;lon;timestamp;P1;durP1;ratioP1;P2;durP2;ratioP2
63536;SDS011;49686;51.880;5.632;2023-01-24T00:01:26;20.88;;;11.13;;
63536;SDS011;49686;51.880;5.632;2023-01-24T00:03:54;19.23;;;12.23;;
63536;SDS011;49686;51.880;5.632;2023-01-24T00:06:21;18.97;;;11.87;;
63536;SDS011;49686;51.880;5.632;2023-01-24T00:08:48;17.40;;;9.98;;
63536;SDS011;49686;51.880;5.632;2023-01-24T00:11:14;17.17;;;9.88;;
63536;SDS011;49686;51.880;5.632;2023-01-24T00:13:41;20.80;;;11.48;;
63536;SDS011;49686;51.880;5.632;2023-01-24T00:16:09;18.08;;;10.18;;
63536;SDS011;49686;51.880;5.632;2023-01-24T00:18:38;20.67;;;10.77;;
63536;SDS011;49686;51.880;5.632;2023-01-24T00:21:07;21.58;;;12.63;;
63536;SDS011;49686;51.880;5.632;2023-01-24T00:23:36;20.80;;;11.95;;
63536;SDS011;49686;51.880;5.632;2023-01-24T00:26:03;18.15;;;10.20;;
63536;SDS011;49686;51.880;5.632;2023-01-24T00:28:30;20.75;;;11.82;;
63536;SDS011;49686;51.880;5.632;2023-01-24T00:30:57;17.33;;;9.60;;
63536;SDS011;49686;51.880;5.632;2023-01-24T00:33:23;18.17;;;10.48;;
63536;SDS011;49686;51.880;5.632;2023-01-24T00:35:50;17.98;;;10.60;;
63536;SDS011;49686;51.880;5.632;2023-01-24T00:38:20;15.95;;;9.65;;
63536;SDS011;49686;51.880;5.632;2023-01-24T00:40:47;21.48;;;11.57;;
63536;SDS011;49686;51.880;5.632;2023-01-24T00:43:14;21.63;;;12.48;;
63536;SDS011;49686;51.880;5.632;2023-01-24T00:45:42;16.00;;;9.18;;
63536;SDS011;49686;51.880;5.632;2023-01-24T00:48:10;22.45;;;12.10;;
63536;SDS011;49686;51.880;5.632;2023-01-24T00:50:37;18.45;;;10.10;;
63536;SDS011;49686;51.880;5.632;2023-01-24T00:53:03;20.55;;;11.30;;
63536;SDS011;49686;51.880;5.632;2023-01-24T00:55:32;21.38;;;11.75;;
63536;SDS011;49686;51.880;5.632;2023-01-24T00:57:58;15.23;;;8.43;;
63536;SDS011;49686;51.880;5.632;2023-01-24T01:00:26;21.65;;;12.27;;
63536;SDS011;49686;51.880;5.632;2023-01-24T01:02:53;20.77;;;11.57;;
63536;SDS011;49686;51.880;5.632;2023-01-24T01:05:20;21.50;;;11.63;;
63536;SDS011;49686;51.880;5.632;2023-01-24T01:07:47;20.23;;;11.15;;
63536;SDS011;49686;51.880;5.632;2023-01-24T01:10:14;21.25;;;11.18;;
63536;SDS011;49686;51.880;5.632;2023-01-24T01:12:42;18.33;;;10.07;;
63536;SDS011;49686;51.880;5.632;2023-01-24T01:15:09;19.47;;;10.77;;
63536;SDS011;49686;51.880;5.632;2023-01-24T01:17:36;18.45;;;10.02;;
63536;SDS011;49686;51.880;5.632;2023-01-24T01:20:03;17.60;;;10.13;;
63536;SDS011;49686;51.880;5.632;2023-01-24T01:22:31;16.70;;;9.95;;
63536;SDS011;49686;51.880;5.632;2023-01-24T01:24:58;17.23;;;9.70;;
63536;SDS011;49686;51.880;5.632;2023-01-24T01:27:24;17.60;;;9.20;;
63536;SDS011;49686;51.880;5.632;2023-01-24T01:29:52;14.30;;;7.65;;
63536;SDS011;49686;51.880;5.632;2023-01-24T01:32:19;18.13;;;11.17;;
63536;SDS011;49686;51.880;5.632;2023-01-24T01:34:46;15.90;;;8.40;;
63536;SDS011;49686;51.880;5.632;2023-01-24T01:37:13;19.30;;;10.20;;
63536;SDS011;49686;51.880;5.632;2023-01-24T01:39:40;15.90;;;8.25;;
63536;SDS011;49686;51.880;5.632;2023-01-24T01:42:06;18.08;;;9.77;;
63536;SDS011;49686;51.880;5.632;2023-01-24T01:44:33;14.02;;;7.72;;
63536;SDS011;49686;51.880;5.632;2023-01-24T01:47:01;19.75;;;10.65;;
63536;SDS011;49686;51.880;5.632;2023-01-24T01:51:57;16.83;;;8.50;;
63536;SDS011;49686;51.880;5.632;2023-01-24T01:54:27;16.75;;;9.00;;
63536;SDS011;49686;51.880;5.632;2023-01-24T01:56:57;18.95;;;9.43;;
63536;SDS011;49686;51.880;5.632;2023-01-24T01:59:27;13.93;;;7.53;;
63536;SDS011;49686;51.880;5.632;2023-01-24T02:01:57;18.50;;;10.55;;
63536;SDS011;49686;51.880;5.632;2023-01-24T02:04:28;16.00;;;9.38;;
63536;SDS011;49686;51.880;5.632;2023-01-24T02:06:59;18.50;;;10.00;;
63536;SDS011;49686;51.880;5.632;2023-01-24T02:09:31;18.65;;;10.32;;
63536;SDS011;49686;51.880;5.632;2023-01-24T02:12:00;18.88;;;10.80;;
63536;SDS011;49686;51.880;5.632;2023-01-24T02:14:30;16.98;;;10.00;;
63536;SDS011;49686;51.880;5.632;2023-01-24T02:16:57;17.85;;;10.50;;
63536;SDS011;49686;51.880;5.632;2023-01-24T02:19:37;17.08;;;9.65;;
63536;SDS011;49686;51.880;5.632;2023-01-24T02:22:20;18.30;;;10.35;;
63536;SDS011;49686;51.880;5.632;2023-01-24T02:24:55;20.27;;;11.18;;
63536;SDS011;49686;51.880;5.632;2023-01-24T02:27:28;18.35;;;9.88;;
63536;SDS011;49686;51.880;5.632;2023-01-24T02:29:55;19.30;;;11.30;;
63536;SDS011;49686;51.880;5.632;2023-01-24T02:32:23;16.98;;;10.15;;
63536;SDS011;49686;51.880;5.632;2023-01-24T02:34:50;18.92;;;10.43;;
63536;SDS011;49686;51.880;5.632;2023-01-24T02:37:17;20.33;;;10.88;;
63536;SDS011;49686;51.880;5.632;2023-01-24T02:39:46;19.13;;;10.00;;
63536;SDS011;49686;51.880;5.632;2023-01-24T02:42:16;19.15;;;10.95;;
63536;SDS011;49686;51.880;5.632;2023-01-24T02:44:49;19.10;;;11.23;;
63536;SDS011;49686;51.880;5.632;2023-01-24T02:47:18;20.42;;;11.68;;
63536;SDS011;49686;51.880;5.632;2023-01-24T02:49:45;16.05;;;9.82;;
63536;SDS011;49686;51.880;5.632;2023-01-24T02:52:12;17.73;;;10.25;;
63536;SDS011;49686;51.880;5.632;2023-01-24T02:54:39;20.00;;;11.05;;
63536;SDS011;49686;51.880;5.632;2023-01-24T02:57:06;19.52;;;11.25;;
63536;SDS011;49686;51.880;5.632;2023-01-24T02:59:32;17.13;;;10.55;;
63536;SDS011;49686;51.880;5.632;2023-01-24T03:02:00;18.58;;;10.65;;
63536;SDS011;49686;51.880;5.632;2023-01-24T03:04:27;17.00;;;10.07;;
63536;SDS011;49686;51.880;5.632;2023-01-24T03:06:54;21.73;;;11.25;;
63536;SDS011;49686;51.880;5.632;2023-01-24T03:09:21;17.42;;;10.02;;
63536;SDS011;49686;51.880;5.632;2023-01-24T03:11:48;18.15;;;10.65;;
63536;SDS011;49686;51.880;5.632;2023-01-24T03:14:16;16.33;;;9.15;;
63536;SDS011;49686;51.880;5.632;2023-01-24T03:16:43;20.13;;;10.52;;
63536;SDS011;49686;51.880;5.632;2023-01-24T03:19:11;21.27;;;10.65;;
63536;SDS011;49686;51.880;5.632;2023-01-24T03:21:38;18.10;;;10.27;;
63536;SDS011;49686;51.880;5.632;2023-01-24T03:24:07;19.25;;;10.45;;
63536;SDS011;49686;51.880;5.632;2023-01-24T03:26:34;22.30;;;12.15;;
63536;SDS011;49686;51.880;5.632;2023-01-24T03:29:00;19.52;;;10.40;;
63536;SDS011;49686;51.880;5.632;2023-01-24T03:31:27;21.58;;;12.25;;
63536;SDS011;49686;51.880;5.632;2023-01-24T03:33:55;22.42;;;12.00;;
63536;SDS011;49686;51.880;5.632;2023-01-24T03:36:23;22.45;;;12.07;;
63536;SDS011;49686;51.880;5.632;2023-01-24T03:38:50;21.92;;;11.52;;
63536;SDS011;49686;51.880;5.632;2023-01-24T03:41:17;21.27;;;11.82;;
63536;SDS011;49686;51.880;5.632;2023-01-24T03:43:43;18.30;;;10.43;;
63536;SDS011;49686;51.880;5.632;2023-01-24T03:46:11;21.70;;;11.02;;
63536;SDS011;49686;51.880;5.632;2023-01-24T03:48:38;20.40;;;11.70;;
63536;SDS011;49686;51.880;5.632;2023-01-24T03:51:05;18.38;;;10.80;;
63536;SDS011;49686;51.880;5.632;2023-01-24T03:53:36;19.10;;;10.70;;
63536;SDS011;49686;51.880;5.632;2023-01-24T03:56:04;19.38;;;10.98;;
63536;SDS011;49686;51.880;5.632;2023-01-24T03:58:31;20.23;;;11.13;;
63536;SDS011;49686;51.880;5.632;2023-01-24T04:00:58;21.55;;;12.00;;
63536;SDS011;49686;51.880;5.632;2023-01-24T04:03:25;20.90;;;11.48;;
63536;SDS011;49686;51.880;5.632;2023-01-24T04:05:52;18.58;;;9.27;;
63536;SDS011;49686;51.880;5.632;2023-01-24T04:08:19;24.15;;;12.32;;
63536;SDS011;49686;51.880;5.632;2023-01-24T04:10:47;21.70;;;11.93;;
63536;SDS011;49686;51.880;5.632;2023-01-24T04:13:14;21.85;;;12.07;;
63536;SDS011;49686;51.880;5.632;2023-01-24T04:15:40;23.10;;;12.55;;
63536;SDS011;49686;51.880;5.632;2023-01-24T04:18:07;19.17;;;10.57;;
63536;SDS011;49686;51.880;5.632;2023-01-24T04:20:35;20.23;;;11.60;;
63536;SDS011;49686;51.880;5.632;2023-01-24T04:23:03;21.25;;;12.15;;
63536;SDS011;49686;51.880;5.632;2023-01-24T04:25:31;19.02;;;9.52;;
63536;SDS011;49686;51.880;5.632;2023-01-24T04:27:59;21.30;;;11.57;;
63536;SDS011;49686;51.880;5.632;2023-01-24T04:30:26;24.20;;;12.43;;
63536;SDS011;49686;51.880;5.632;2023-01-24T04:32:53;18.02;;;10.48;;
63536;SDS011;49686;51.880;5.632;2023-01-24T04:35:21;22.60;;;12.75;;
63536;SDS011;49686;51.880;5.632;2023-01-24T04:37:50;19.35;;;10.35;;
63536;SDS011;49686;51.880;5.632;2023-01-24T04:40:17;22.15;;;12.15;;
63536;SDS011;49686;51.880;5.632;2023-01-24T04:42:44;21.60;;;12.30;;
63536;SDS011;49686;51.880;5.632;2023-01-24T04:45:12;20.73;;;11.35;;
63536;SDS011;49686;51.880;5.632;2023-01-24T04:47:39;21.47;;;11.77;;
63536;SDS011;49686;51.880;5.632;2023-01-24T04:50:06;25.00;;;13.93;;
63536;SDS011;49686;51.880;5.632;2023-01-24T04:52:34;20.93;;;12.00;;
63536;SDS011;49686;51.880;5.632;2023-01-24T04:55:00;25.52;;;13.82;;
63536;SDS011;49686;51.880;5.632;2023-01-24T04:57:27;25.58;;;14.02;;
63536;SDS011;49686;51.880;5.632;2023-01-24T04:59:54;21.52;;;12.32;;
63536;SDS011;49686;51.880;5.632;2023-01-24T05:02:22;20.10;;;11.63;;
63536;SDS011;49686;51.880;5.632;2023-01-24T05:04:49;21.17;;;11.63;;
63536;SDS011;49686;51.880;5.632;2023-01-24T05:07:16;21.33;;;11.43;;
63536;SDS011;49686;51.880;5.632;2023-01-24T05:09:42;21.52;;;11.85;;
63536;SDS011;49686;51.880;5.632;2023-01-24T05:12:10;17.20;;;10.75;;
63536;SDS011;49686;51.880;5.632;2023-01-24T05:14:36;22.77;;;12.90;;
63536;SDS011;49686;51.880;5.632;2023-01-24T05:17:03;25.00;;;14.25;;
63536;SDS011;49686;51.880;5.632;2023-01-24T05:19:32;22.77;;;13.43;;
63536;SDS011;49686;51.880;5.632;2023-01-24T05:21:59;21.65;;;12.57;;
63536;SDS011;49686;51.880;5.632;2023-01-24T05:24:26;24.80;;;14.00;;
63536;SDS011;49686;51.880;5.632;2023-01-24T05:26:52;26.02;;;13.60;;
63536;SDS011;49686;51.880;5.632;2023-01-24T05:29:19;26.70;;;14.40;;
63536;SDS011;49686;51.880;5.632;2023-01-24T05:31:46;25.55;;;13.60;;
63536;SDS011;49686;51.880;5.632;2023-01-24T05:34:13;22.58;;;12.93;;
63536;SDS011;49686;51.880;5.632;2023-01-24T05:36:41;24.23;;;13.68;;
63536;SDS011;49686;51.880;5.632;2023-01-24T05:39:07;24.97;;;13.33;;
63536;SDS011;49686;51.880;5.632;2023-01-24T05:41:34;25.65;;;14.15;;
63536;SDS011;49686;51.880;5.632;2023-01-24T05:44:01;24.42;;;13.38;;
63536;SDS011;49686;51.880;5.632;2023-01-24T05:46:28;25.27;;;13.90;;
63536;SDS011;49686;51.880;5.632;2023-01-24T05:48:55;25.73;;;12.98;;
63536;SDS011;49686;51.880;5.632;2023-01-24T05:51:22;17.48;;;9.73;;
63536;SDS011;49686;51.880;5.632;2023-01-24T05:53:50;20.67;;;11.23;;
63536;SDS011;49686;51.880;5.632;2023-01-24T05:56:17;25.03;;;13.07;;
63536;SDS011;49686;51.880;5.632;2023-01-24T05:58:46;28.10;;;15.75;;
63536;SDS011;49686;51.880;5.632;2023-01-24T06:01:16;15.80;;;9.25;;
63536;SDS011;49686;51.880;5.632;2023-01-24T06:03:45;21.60;;;11.20;;
63536;SDS011;49686;51.880;5.632;2023-01-24T06:06:15;28.35;;;15.98;;
63536;SDS011;49686;51.880;5.632;2023-01-24T06:11:12;28.52;;;14.18;;
63536;SDS011;49686;51.880;5.632;2023-01-24T06:13:41;20.00;;;10.98;;
63536;SDS011;49686;51.880;5.632;2023-01-24T06:16:09;23.77;;;13.23;;
63536;SDS011;49686;51.880;5.632;2023-01-24T06:18:38;28.58;;;14.45;;
63536;SDS011;49686;51.880;5.632;2023-01-24T06:21:06;23.13;;;12.63;;
63536;SDS011;49686;51.880;5.632;2023-01-24T06:23:34;27.75;;;15.65;;
63536;SDS011;49686;51.880;5.632;2023-01-24T06:26:01;25.45;;;13.68;;
63536;SDS011;49686;51.880;5.632;2023-01-24T06:28:31;26.83;;;15.45;;
63536;SDS011;49686;51.880;5.632;2023-01-24T06:31:00;21.60;;;11.35;;
63536;SDS011;49686;51.880;5.632;2023-01-24T06:33:38;25.23;;;14.60;;
63536;SDS011;49686;51.880;5.632;2023-01-24T06:36:11;20.20;;;10.88;;
63536;SDS011;49686;51.880;5.632;2023-01-24T06:38:50;24.48;;;12.70;;
63536;SDS011;49686;51.880;5.632;2023-01-24T06:41:18;22.33;;;12.05;;
63536;SDS011;49686;51.880;5.632;2023-01-24T06:43:47;21.00;;;11.93;;
63536;SDS011;49686;51.880;5.632;2023-01-24T06:46:14;25.90;;;13.98;;
63536;SDS011;49686;51.880;5.632;2023-01-24T06:48:42;24.98;;;13.00;;
63536;SDS011;49686;51.880;5.632;2023-01-24T06:51:10;29.15;;;15.70;;
63536;SDS011;49686;51.880;5.632;2023-01-24T06:53:38;27.08;;;15.25;;
63536;SDS011;49686;51.880;5.632;2023-01-24T06:56:05;30.67;;;16.13;;
63536;SDS011;49686;51.880;5.632;2023-01-24T06:58:33;27.40;;;14.68;;
63536;SDS011;49686;51.880;5.632;2023-01-24T07:01:01;30.95;;;17.02;;
63536;SDS011;49686;51.880;5.632;2023-01-24T07:03:28;29.02;;;15.00;;
63536;SDS011;49686;51.880;5.632;2023-01-24T07:05:55;26.10;;;13.52;;
63536;SDS011;49686;51.880;5.632;2023-01-24T07:08:22;23.75;;;12.50;;
63536;SDS011;49686;51.880;5.632;2023-01-24T07:10:49;28.33;;;15.73;;
63536;SDS011;49686;51.880;5.632;2023-01-24T07:13:15;28.55;;;15.32;;
63536;SDS011;49686;51.880;5.632;2023-01-24T07:15:42;31.40;;;16.85;;
63536;SDS011;49686;51.880;5.632;2023-01-24T07:18:11;30.27;;;16.75;;
63536;SDS011;49686;51.880;5.632;2023-01-24T07:20:41;31.77;;;16.77;;
63536;SDS011;49686;51.880;5.632;2023-01-24T07:23:13;28.50;;;14.23;;
63536;SDS011;49686;51.880;5.632;2023-01-24T07:25:47;29.00;;;15.00;;
63536;SDS011;49686;51.880;5.632;2023-01-24T07:28:15;26.02;;;13.95;;
63536;SDS011;49686;51.880;5.632;2023-01-24T07:30:42;28.08;;;13.40;;
63536;SDS011;49686;51.880;5.632;2023-01-24T07:33:10;34.45;;;15.40;;
63536;SDS011;49686;51.880;5.632;2023-01-24T07:35:38;30.08;;;16.55;;
63536;SDS011;49686;51.880;5.632;2023-01-24T07:38:04;29.63;;;14.95;;
63536;SDS011;49686;51.880;5.632;2023-01-24T07:40:31;24.80;;;13.73;;
63536;SDS011;49686;51.880;5.632;2023-01-24T07:42:58;24.27;;;13.07;;
63536;SDS011;49686;51.880;5.632;2023-01-24T07:45:25;27.08;;;15.10;;
63536;SDS011;49686;51.880;5.632;2023-01-24T07:47:53;25.63;;;13.23;;
63536;SDS011;49686;51.880;5.632;2023-01-24T07:50:22;28.75;;;14.65;;
63536;SDS011;49686;51.880;5.632;2023-01-24T07:52:49;25.83;;;12.93;;
63536;SDS011;49686;51.880;5.632;2023-01-24T07:55:17;28.50;;;15.57;;
63536;SDS011;49686;51.880;5.632;2023-01-24T07:57:44;23.70;;;13.00;;
63536;SDS011;49686;51.880;5.632;2023-01-24T08:00:11;24.10;;;12.65;;
63536;SDS011;49686;51.880;5.632;2023-01-24T08:02:38;26.80;;;12.60;;
63536;SDS011;49686;51.880;5.632;2023-01-24T08:05:05;28.27;;;14.77;;
63536;SDS011;49686;51.880;5.632;2023-01-24T08:07:34;25.75;;;12.77;;
63536;SDS011;49686;51.880;5.632;2023-01-24T08:10:01;28.85;;;15.18;;
63536;SDS011;49686;51.880;5.632;2023-01-24T08:12:28;27.63;;;14.15;;
63536;SDS011;49686;51.880;5.632;2023-01-24T08:14:55;20.23;;;10.65;;
63536;SDS011;49686;51.880;5.632;2023-01-24T08:17:22;26.98;;;14.32;;
63536;SDS011;49686;51.880;5.632;2023-01-24T08:19:49;26.80;;;15.18;;
63536;SDS011;49686;51.880;5.632;2023-01-24T08:22:23;29.77;;;14.98;;
63536;SDS011;49686;51.880;5.632;2023-01-24T08:24:52;23.38;;;12.00;;
63536;SDS011;49686;51.880;5.632;2023-01-24T08:27:19;28.63;;;15.07;;
63536;SDS011;49686;51.880;5.632;2023-01-24T08:29:45;27.05;;;14.10;;
63536;SDS011;49686;51.880;5.632;2023-01-24T08:32:12;32.83;;;17.25;;
63536;SDS011;49686;51.880;5.632;2023-01-24T08:34:39;31.58;;;16.50;;
63536;SDS011;49686;51.880;5.632;2023-01-24T08:37:06;31.67;;;16.90;;
63536;SDS011;49686;51.880;5.632;2023-01-24T08:39:32;26.38;;;13.48;;
63536;SDS011;49686;51.880;5.632;2023-01-24T08:42:02;25.40;;;13.75;;
63536;SDS011;49686;51.880;5.632;2023-01-24T08:44:28;25.40;;;13.68;;
63536;SDS011;49686;51.880;5.632;2023-01-24T08:46:55;26.25;;;13.38;;
63536;SDS011;49686;51.880;5.632;2023-01-24T08:49:22;29.70;;;15.27;;
63536;SDS011;49686;51.880;5.632;2023-01-24T08:51:49;24.38;;;13.07;;
63536;SDS011;49686;51.880;5.632;2023-01-24T08:54:16;26.10;;;13.43;;
63536;SDS011;49686;51.880;5.632;2023-01-24T08:56:42;29.08;;;15.50;;
63536;SDS011;49686;51.880;5.632;2023-01-24T08:59:11;23.42;;;12.35;;
63536;SDS011;49686;51.880;5.632;2023-01-24T09:01:37;30.38;;;15.77;;
63536;SDS011;49686;51.880;5.632;2023-01-24T09:04:04;29.00;;;14.35;;
63536;SDS011;49686;51.880;5.632;2023-01-24T09:06:31;30.15;;;14.63;;
63536;SDS011;49686;51.880;5.632;2023-01-24T09:08:58;32.55;;;16.33;;
63536;SDS011;49686;51.880;5.632;2023-01-24T09:11:25;31.85;;;16.55;;
63536;SDS011;49686;51.880;5.632;2023-01-24T09:13:52;32.03;;;15.93;;
63536;SDS011;49686;51.880;5.632;2023-01-24T09:16:20;28.85;;;15.00;;
63536;SDS011;49686;51.880;5.632;2023-01-24T09:18:47;28.25;;;13.68;;
63536;SDS011;49686;51.880;5.632;2023-01-24T09:21:14;26.45;;;14.23;;
63536;SDS011;49686;51.880;5.632;2023-01-24T09:23:41;26.55;;;14.00;;
63536;SDS011;49686;51.880;5.632;2023-01-24T09:26:08;23.67;;;12.82;;
63536;SDS011;49686;51.880;5.632;2023-01-24T09:28:35;25.00;;;13.55;;
63536;SDS011;49686;51.880;5.632;2023-01-24T09:31:02;27.35;;;14.90;;
63536;SDS011;49686;51.880;5.632;2023-01-24T09:33:31;27.55;;;13.80;;
63536;SDS011;49686;51.880;5.632;2023-01-24T09:35:58;29.73;;;15.03;;
63536;SDS011;49686;51.880;5.632;2023-01-24T09:38:27;23.73;;;13.55;;
63536;SDS011;49686;51.880;5.632;2023-01-24T09:43:46;27.52;;;14.02;;
63536;SDS011;49686;51.880;5.632;2023-01-24T09:46:32;29.65;;;15.68;;
63536;SDS011;49686;51.880;5.632;2023-01-24T09:49:09;28.20;;;15.32;;
63536;SDS011;49686;51.880;5.632;2023-01-24T09:51:42;28.63;;;13.52;;
63536;SDS011;49686;51.880;5.632;2023-01-24T09:54:15;27.55;;;14.00;;
63536;SDS011;49686;51.880;5.632;2023-01-24T09:56:47;28.30;;;14.70;;
63536;SDS011;49686;51.880;5.632;2023-01-24T09:59:17;27.58;;;14.95;;
63536;SDS011;49686;51.880;5.632;2023-01-24T10:01:46;31.63;;;14.95;;
63536;SDS011;49686;51.880;5.632;2023-01-24T10:04:17;29.05;;;14.77;;
63536;SDS011;49686;51.880;5.632;2023-01-24T10:06:51;22.80;;;12.68;;
63536;SDS011;49686;51.880;5.632;2023-01-24T10:09:29;25.13;;;13.18;;
63536;SDS011;49686;51.880;5.632;2023-01-24T10:12:05;20.83;;;10.65;;
63536;SDS011;49686;51.880;5.632;2023-01-24T10:14:44;24.67;;;12.48;;
63536;SDS011;49686;51.880;5.632;2023-01-24T10:17:26;27.98;;;14.40;;
63536;SDS011;49686;51.880;5.632;2023-01-24T10:20:14;21.88;;;12.27;;
63536;SDS011;49686;51.880;5.632;2023-01-24T10:23:04;22.13;;;11.75;;
63536;SDS011;49686;51.880;5.632;2023-01-24T10:25:44;23.13;;;11.48;;
63536;SDS011;49686;51.880;5.632;2023-01-24T10:28:17;26.48;;;13.95;;
63536;SDS011;49686;51.880;5.632;2023-01-24T10:30:52;19.65;;;11.13;;
63536;SDS011;49686;51.880;5.632;2023-01-24T10:33:29;27.52;;;14.50;;
63536;SDS011;49686;51.880;5.632;2023-01-24T10:36:03;28.05;;;14.95;;
63536;SDS011;49686;51.880;5.632;2023-01-24T10:38:36;22.67;;;12.82;;
63536;SDS011;49686;51.880;5.632;2023-01-24T10:41:13;26.90;;;13.95;;
63536;SDS011;49686;51.880;5.632;2023-01-24T10:43:47;22.73;;;12.73;;
63536;SDS011;49686;51.880;5.632;2023-01-24T10:46:25;26.83;;;14.30;;
63536;SDS011;49686;51.880;5.632;2023-01-24T10:49:00;22.90;;;13.27;;
63536;SDS011;49686;51.880;5.632;2023-01-24T10:51:31;25.27;;;14.30;;
63536;SDS011;49686;51.880;5.632;2023-01-24T10:54:00;24.53;;;14.63;;
63536;SDS011;49686;51.880;5.632;2023-01-24T10:56:27;21.88;;;12.60;;
63536;SDS011;49686;51.880;5.632;2023-01-24T10:58:55;25.23;;;13.68;;
63536;SDS011;49686;51.880;5.632;2023-01-24T11:01:23;19.00;;;11.10;;
63536;SDS011;49686;51.880;5.632;2023-01-24T11:03:59;24.13;;;13.00;;
63536;SDS011;49686;51.880;5.632;2023-01-24T11:06:40;24.33;;;12.73;;
63536;SDS011;49686;51.880;5.632;2023-01-24T11:09:09;25.27;;;14.65;;
63536;SDS011;49686;51.880;5.632;2023-01-24T11:11:40;27.05;;;15.07;;
63536;SDS011;49686;51.880;5.632;2023-01-24T11:14:10;24.23;;;13.65;;
63536;SDS011;49686;51.880;5.632;2023-01-24T11:16:41;27.20;;;14.48;;
63536;SDS011;49686;51.880;5.632;2023-01-24T11:19:20;23.80;;;13.93;;
63536;SDS011;49686;51.880;5.632;2023-01-24T11:21:53;22.60;;;12.25;;
63536;SDS011;49686;51.880;5.632;2023-01-24T11:24:21;23.55;;;13.98;;
63536;SDS011;49686;51.880;5.632;2023-01-24T11:26:53;24.33;;;14.05;;
63536;SDS011;49686;51.880;5.632;2023-01-24T11:29:22;22.88;;;13.18;;
63536;SDS011;49686;51.880;5.632;2023-01-24T11:31:50;24.15;;;13.82;;
63536;SDS011;49686;51.880;5.632;2023-01-24T11:34:33;24.65;;;14.70;;
63536;SDS011;49686;51.880;5.632;2023-01-24T11:37:16;21.17;;;12.25;;
63536;SDS011;49686;51.880;5.632;2023-01-24T11:39:58;21.15;;;13.10;;
63536;SDS011;49686;51.880;5.632;2023-01-24T11:42:39;19.80;;;11.23;;
63536;SDS011;49686;51.880;5.632;2023-01-24T11:48:05;20.02;;;11.98;;
63536;SDS011;49686;51.880;5.632;2023-01-24T11:50:41;23.90;;;14.40;;
63536;SDS011;49686;51.880;5.632;2023-01-24T11:53:27;23.55;;;13.32;;
63536;SDS011;49686;51.880;5.632;2023-01-24T11:56:18;23.00;;;13.82;;
63536;SDS011;49686;51.880;5.632;2023-01-24T11:58:54;23.52;;;13.45;;
63536;SDS011;49686;51.880;5.632;2023-01-24T12:04:06;17.15;;;9.77;;
63536;SDS011;49686;51.880;5.632;2023-01-24T12:06:55;17.65;;;10.18;;
63536;SDS011;49686;51.880;5.632;2023-01-24T12:09:29;19.73;;;12.40;;
63536;SDS011;49686;51.880;5.632;2023-01-24T12:12:05;19.25;;;11.55;;
63536;SDS011;49686;51.880;5.632;2023-01-24T12:20:48;19.92;;;11.13;;
63536;SDS011;49686;51.880;5.632;2023-01-24T12:23:26;20.25;;;12.52;;
63536;SDS011;49686;51.880;5.632;2023-01-24T12:26:02;20.58;;;11.63;;
63536;SDS011;49686;51.880;5.632;2023-01-24T12:28:36;19.95;;;11.13;;
63536;SDS011;49686;51.880;5.632;2023-01-24T12:31:07;23.10;;;13.63;;
63536;SDS011;49686;51.880;5.632;2023-01-24T12:33:40;19.50;;;11.32;;
63536;SDS011;49686;51.880;5.632;2023-01-24T12:36:14;22.33;;;11.45;;
63536;SDS011;49686;51.880;5.632;2023-01-24T12:38:49;20.73;;;12.48;;
63536;SDS011;49686;51.880;5.632;2023-01-24T12:41:24;18.50;;;10.98;;
63536;SDS011;49686;51.880;5.632;2023-01-24T12:43:58;19.63;;;10.45;;
63536;SDS011;49686;51.880;5.632;2023-01-24T12:46:31;16.80;;;9.65;;
63536;SDS011;49686;51.880;5.632;2023-01-24T12:49:04;17.80;;;11.02;;
63536;SDS011;49686;51.880;5.632;2023-01-24T12:51:42;14.82;;;8.18;;
63536;SDS011;49686;51.880;5.632;2023-01-24T12:54:13;19.73;;;11.95;;
63536;SDS011;49686;51.880;5.632;2023-01-24T12:56:47;18.88;;;11.45;;
63536;SDS011;49686;51.880;5.632;2023-01-24T12:59:19;17.00;;;10.20;;
63536;SDS011;49686;51.880;5.632;2023-01-24T13:04:55;18.88;;;10.55;;
63536;SDS011;49686;51.880;5.632;2023-01-24T13:07:33;17.05;;;9.70;;
63536;SDS011;49686;51.880;5.632;2023-01-24T13:10:09;17.95;;;10.55;;
63536;SDS011;49686;51.880;5.632;2023-01-24T13:12:44;18.58;;;10.40;;
63536;SDS011;49686;51.880;5.632;2023-01-24T13:15:14;16.30;;;9.50;;
63536;SDS011;49686;51.880;5.632;2023-01-24T13:17:48;14.75;;;8.85;;
63536;SDS011;49686;51.880;5.632;2023-01-24T13:20:38;14.60;;;8.18;;
63536;SDS011;49686;51.880;5.632;2023-01-24T13:26:19;17.40;;;10.57;;
63536;SDS011;49686;51.880;5.632;2023-01-24T13:29:03;10.45;;;6.03;;
63536;SDS011;49686;51.880;5.632;2023-01-24T13:32:22;19.95;;;9.85;;
63536;SDS011;49686;51.880;5.632;2023-01-24T13:35:34;16.92;;;9.82;;
63536;SDS011;49686;51.880;5.632;2023-01-24T13:38:43;16.88;;;10.07;;
63536;SDS011;49686;51.880;5.632;2023-01-24T13:41:59;17.58;;;10.10;;
63536;SDS011;49686;51.880;5.632;2023-01-24T13:44:29;15.20;;;9.85;;
63536;SDS011;49686;51.880;5.632;2023-01-24T13:46:58;16.33;;;10.27;;
63536;SDS011;49686;51.880;5.632;2023-01-24T13:49:39;12.63;;;8.25;;
63536;SDS011;49686;51.880;5.632;2023-01-24T13:58:35;16.83;;;9.80;;
63536;SDS011;49686;51.880;5.632;2023-01-24T14:01:04;16.35;;;11.27;;
63536;SDS011;49686;51.880;5.632;2023-01-24T14:03:41;16.73;;;9.57;;
63536;SDS011;49686;51.880;5.632;2023-01-24T14:06:19;15.85;;;9.48;;
63536;SDS011;49686;51.880;5.632;2023-01-24T14:08:51;16.77;;;9.68;;
63536;SDS011;49686;51.880;5.632;2023-01-24T14:11:39;17.13;;;9.55;;
63536;SDS011;49686;51.880;5.632;2023-01-24T14:14:31;18.45;;;10.88;;
63536;SDS011;49686;51.880;5.632;2023-01-24T14:19:54;16.95;;;9.70;;
63536;SDS011;49686;51.880;5.632;2023-01-24T14:22:27;16.00;;;9.40;;
63536;SDS011;49686;51.880;5.632;2023-01-24T14:25:23;15.85;;;10.02;;
63536;SDS011;49686;51.880;5.632;2023-01-24T14:28:04;17.92;;;10.60;;
63536;SDS011;49686;51.880;5.632;2023-01-24T14:30:42;18.00;;;10.77;;
63536;SDS011;49686;51.880;5.632;2023-01-24T14:33:25;15.95;;;10.07;;
63536;SDS011;49686;51.880;5.632;2023-01-24T14:36:00;13.95;;;9.27;;
63536;SDS011;49686;51.880;5.632;2023-01-24T14:38:32;16.15;;;10.00;;
63536;SDS011;49686;51.880;5.632;2023-01-24T14:40:59;18.42;;;11.80;;
63536;SDS011;49686;51.880;5.632;2023-01-24T14:43:30;19.10;;;11.63;;
63536;SDS011;49686;51.880;5.632;2023-01-24T14:46:09;17.77;;;10.18;;
63536;SDS011;49686;51.880;5.632;2023-01-24T14:48:38;16.02;;;9.88;;
63536;SDS011;49686;51.880;5.632;2023-01-24T14:51:06;16.07;;;10.03;;
63536;SDS011;49686;51.880;5.632;2023-01-24T14:53:39;17.77;;;10.35;;
63536;SDS011;49686;51.880;5.632;2023-01-24T14:56:13;12.45;;;7.63;;
63536;SDS011;49686;51.880;5.632;2023-01-24T14:58:39;18.30;;;10.75;;
63536;SDS011;49686;51.880;5.632;2023-01-24T15:01:20;16.17;;;9.55;;
63536;SDS011;49686;51.880;5.632;2023-01-24T15:03:52;13.38;;;8.02;;
63536;SDS011;49686;51.880;5.632;2023-01-24T15:06:19;15.55;;;9.35;;
63536;SDS011;49686;51.880;5.632;2023-01-24T15:08:46;17.88;;;9.82;;
63536;SDS011;49686;51.880;5.632;2023-01-24T15:11:16;15.27;;;9.32;;
63536;SDS011;49686;51.880;5.632;2023-01-24T15:13:47;13.98;;;8.80;;
63536;SDS011;49686;51.880;5.632;2023-01-24T15:16:16;18.05;;;9.93;;
63536;SDS011;49686;51.880;5.632;2023-01-24T15:18:45;17.40;;;11.65;;